This is the latest recevied weather packets stored in our database for station/object TG9SRP-22. If no packets are shown the sender has not sent any weather packets the latest 10 day(s).
| Time | Temp. | Humidity | Pressure | Rain* | Wind** | Luminosity | Snow |
|---|---|---|---|---|---|---|---|
| 1777871294 | 17.22° C | 77% | 1018 hPa | 0 mm | - | - | - |
| 1777870693 | 17.22° C | 77% | 1018 hPa | 0 mm | - | - | - |
| 1777870093 | 18.33° C | 77% | 1018 hPa | 0 mm | - | - | - |
| 1777869492 | 13.33° C | 81% | 1018 hPa | 0 mm | - | - | - |
| 1777868891 | 14.44° C | 81% | 1018 hPa | 0 mm | - | - | - |
| 1777868291 | 15.56° C | 81% | 1018 hPa | 0 mm | - | - | - |
| 1777867690 | 16.67° C | 81% | 1017 hPa | 0 mm | - | - | - |
| 1777867090 | 17.22° C | 82% | 1017 hPa | 0 mm | - | - | - |
| 1777866489 | 13.33° C | 10% | - | 0 mm | - | - | - |
| 1777865889 | 13.33° C | 10% | - | 0 mm | - | - | - |
| 1777865288 | 13.33° C | 92% | 1016 hPa | 0 mm | - | - | - |
| 1777864688 | 13.89° C | 85% | 1016 hPa | 0 mm | - | - | - |
| 1777864087 | 15° C | 83% | 1016 hPa | 0 mm | - | - | - |
| 1777863486 | 16.11° C | 82% | 1016 hPa | 0 mm | - | - | - |
| 1777862886 | 13.89° C | 86% | 1016 hPa | 0 mm | - | - | - |
| 1777862285 | 15° C | 84% | 1016 hPa | 0 mm | - | - | - |
| 1777861685 | 16.11° C | 82% | 1015 hPa | 0 mm | - | - | - |
| 1777861084 | 17.22° C | 82% | 1015 hPa | 0 mm | - | - | - |
| 1777860484 | 14.44° C | 91% | 1016 hPa | 0 mm | - | - | - |
| 1777859883 | 15.56° C | 91% | 1016 hPa | 0 mm | - | - | - |
| 1777859283 | 15.56° C | 91% | 1016 hPa | 0 mm | - | - | - |
| 1777858682 | 16.67° C | 91% | 1016 hPa | 0 mm | - | - | - |
| 1777858081 | 17.78° C | 90% | 1015 hPa | 0 mm | - | - | - |
| 1777857481 | 18.89° C | 88% | 1015 hPa | 0 mm | - | - | - |
| 1777856880 | 20° C | 86% | 1015 hPa | 0.25 mm | - | - | - |
* Rain latest hour (hover to see other rain measurements)
** Current wind speed in m/s (hover to see current wind gust speed)